sensor_id;sensor_type;location;lat;lon;timestamp;temperature;humidity
68354;DHT22;55274;43.060;25.618;2023-06-10T00:01:36;16.20;92.50
68354;DHT22;55274;43.060;25.618;2023-06-10T00:04:03;16.10;92.80
68354;DHT22;55274;43.060;25.618;2023-06-10T00:06:30;16.10;93.00
68354;DHT22;55274;43.060;25.618;2023-06-10T00:09:05;16.10;93.40
68354;DHT22;55274;43.060;25.618;2023-06-10T00:11:34;16.10;93.80
68354;DHT22;55274;43.060;25.618;2023-06-10T00:14:00;16.10;93.60
68354;DHT22;55274;43.060;25.618;2023-06-10T00:16:26;16.20;93.40
68354;DHT22;55274;43.060;25.618;2023-06-10T00:18:52;16.20;93.30
68354;DHT22;55274;43.060;25.618;2023-06-10T00:21:17;16.20;93.80
68354;DHT22;55274;43.060;25.618;2023-06-10T00:23:44;16.10;94.40
68354;DHT22;55274;43.060;25.618;2023-06-10T00:26:10;16.10;94.70
68354;DHT22;55274;43.060;25.618;2023-06-10T00:28:36;16.00;94.60
68354;DHT22;55274;43.060;25.618;2023-06-10T00:31:02;16.00;94.40
68354;DHT22;55274;43.060;25.618;2023-06-10T00:33:29;16.10;94.50
68354;DHT22;55274;43.060;25.618;2023-06-10T00:35:55;16.10;94.30
68354;DHT22;55274;43.060;25.618;2023-06-10T00:38:21;16.00;94.20
68354;DHT22;55274;43.060;25.618;2023-06-10T00:40:47;16.10;94.90
68354;DHT22;55274;43.060;25.618;2023-06-10T00:43:12;16.10;95.00
68354;DHT22;55274;43.060;25.618;2023-06-10T00:45:38;16.10;95.00
68354;DHT22;55274;43.060;25.618;2023-06-10T00:48:04;16.00;95.00
68354;DHT22;55274;43.060;25.618;2023-06-10T00:50:30;15.90;95.40
68354;DHT22;55274;43.060;25.618;2023-06-10T00:52:57;15.90;95.50
68354;DHT22;55274;43.060;25.618;2023-06-10T00:55:24;15.90;95.50
68354;DHT22;55274;43.060;25.618;2023-06-10T00:57:50;15.90;95.80
68354;DHT22;55274;43.060;25.618;2023-06-10T01:00:17;15.90;95.30
68354;DHT22;55274;43.060;25.618;2023-06-10T01:02:43;15.90;96.00
68354;DHT22;55274;43.060;25.618;2023-06-10T01:05:09;15.90;96.30
68354;DHT22;55274;43.060;25.618;2023-06-10T01:07:45;15.90;96.50
68354;DHT22;55274;43.060;25.618;2023-06-10T01:15:16;15.80;97.20
68354;DHT22;55274;43.060;25.618;2023-06-10T01:18:05;15.80;96.90
68354;DHT22;55274;43.060;25.618;2023-06-10T01:20:35;15.80;97.40
68354;DHT22;55274;43.060;25.618;2023-06-10T01:23:03;15.80;97.90
68354;DHT22;55274;43.060;25.618;2023-06-10T01:25:30;15.80;97.70
68354;DHT22;55274;43.060;25.618;2023-06-10T01:28:22;15.80;97.70
68354;DHT22;55274;43.060;25.618;2023-06-10T01:31:14;15.90;97.30
68354;DHT22;55274;43.060;25.618;2023-06-10T01:33:52;15.90;97.30
68354;DHT22;55274;43.060;25.618;2023-06-10T01:36:19;15.90;97.50
68354;DHT22;55274;43.060;25.618;2023-06-10T01:38:47;15.80;97.70
68354;DHT22;55274;43.060;25.618;2023-06-10T01:41:15;15.80;97.20
68354;DHT22;55274;43.060;25.618;2023-06-10T01:43:44;15.80;97.80
68354;DHT22;55274;43.060;25.618;2023-06-10T01:46:10;15.70;97.90
68354;DHT22;55274;43.060;25.618;2023-06-10T01:48:37;15.70;98.00
68354;DHT22;55274;43.060;25.618;2023-06-10T01:51:04;15.50;98.00
68354;DHT22;55274;43.060;25.618;2023-06-10T01:53:30;15.50;98.20
68354;DHT22;55274;43.060;25.618;2023-06-10T01:55:55;15.40;98.60
68354;DHT22;55274;43.060;25.618;2023-06-10T01:58:21;15.30;99.10
68354;DHT22;55274;43.060;25.618;2023-06-10T02:00:47;15.30;99.20
68354;DHT22;55274;43.060;25.618;2023-06-10T02:03:13;15.30;99.60
68354;DHT22;55274;43.060;25.618;2023-06-10T02:05:39;15.20;99.90
68354;DHT22;55274;43.060;25.618;2023-06-10T02:08:05;15.20;99.90
68354;DHT22;55274;43.060;25.618;2023-06-10T02:10:30;15.20;99.90
68354;DHT22;55274;43.060;25.618;2023-06-10T02:12:56;15.30;99.90
68354;DHT22;55274;43.060;25.618;2023-06-10T02:15:22;15.20;99.90
68354;DHT22;55274;43.060;25.618;2023-06-10T02:17:48;15.20;99.90
68354;DHT22;55274;43.060;25.618;2023-06-10T02:20:16;15.20;99.90
68354;DHT22;55274;43.060;25.618;2023-06-10T02:22:43;15.20;99.90
68354;DHT22;55274;43.060;25.618;2023-06-10T02:25:09;15.20;99.90
68354;DHT22;55274;43.060;25.618;2023-06-10T02:27:34;15.10;99.90
68354;DHT22;55274;43.060;25.618;2023-06-10T02:30:00;15.10;99.90
68354;DHT22;55274;43.060;25.618;2023-06-10T02:32:26;15.10;99.90
68354;DHT22;55274;43.060;25.618;2023-06-10T02:34:52;15.10;99.90
68354;DHT22;55274;43.060;25.618;2023-06-10T02:37:18;15.20;99.90
68354;DHT22;55274;43.060;25.618;2023-06-10T02:39:44;15.20;99.90
68354;DHT22;55274;43.060;25.618;2023-06-10T02:42:13;15.20;99.90
68354;DHT22;55274;43.060;25.618;2023-06-10T02:44:38;15.20;99.90
68354;DHT22;55274;43.060;25.618;2023-06-10T02:47:05;15.10;99.90
68354;DHT22;55274;43.060;25.618;2023-06-10T02:49:31;15.10;99.90
68354;DHT22;55274;43.060;25.618;2023-06-10T02:51:56;15.10;99.90
68354;DHT22;55274;43.060;25.618;2023-06-10T02:54:23;15.20;99.90
68354;DHT22;55274;43.060;25.618;2023-06-10T02:56:49;15.20;99.90
68354;DHT22;55274;43.060;25.618;2023-06-10T02:59:15;15.30;99.90
68354;DHT22;55274;43.060;25.618;2023-06-10T03:01:41;15.30;99.90
68354;DHT22;55274;43.060;25.618;2023-06-10T03:04:07;15.30;99.90
68354;DHT22;55274;43.060;25.618;2023-06-10T03:06:33;15.30;99.90
68354;DHT22;55274;43.060;25.618;2023-06-10T03:09:01;15.40;99.90
68354;DHT22;55274;43.060;25.618;2023-06-10T03:11:27;15.40;99.90
68354;DHT22;55274;43.060;25.618;2023-06-10T03:13:53;15.50;99.90
68354;DHT22;55274;43.060;25.618;2023-06-10T03:16:19;15.50;99.90
68354;DHT22;55274;43.060;25.618;2023-06-10T03:18:45;15.50;99.90
68354;DHT22;55274;43.060;25.618;2023-06-10T03:21:11;15.50;99.90
68354;DHT22;55274;43.060;25.618;2023-06-10T03:23:37;15.60;99.90
68354;DHT22;55274;43.060;25.618;2023-06-10T03:26:04;15.60;99.90
68354;DHT22;55274;43.060;25.618;2023-06-10T03:28:31;15.70;99.90
68354;DHT22;55274;43.060;25.618;2023-06-10T03:30:57;15.70;99.90
68354;DHT22;55274;43.060;25.618;2023-06-10T03:33:23;15.80;99.90
68354;DHT22;55274;43.060;25.618;2023-06-10T03:35:49;15.90;99.90
68354;DHT22;55274;43.060;25.618;2023-06-10T03:38:14;16.00;99.90
68354;DHT22;55274;43.060;25.618;2023-06-10T03:40:40;16.20;99.90
68354;DHT22;55274;43.060;25.618;2023-06-10T03:43:06;16.20;99.90
68354;DHT22;55274;43.060;25.618;2023-06-10T03:45:32;16.30;99.90
68354;DHT22;55274;43.060;25.618;2023-06-10T03:47:58;16.40;99.90
68354;DHT22;55274;43.060;25.618;2023-06-10T03:50:24;16.40;99.70
68354;DHT22;55274;43.060;25.618;2023-06-10T03:52:50;16.60;99.10
68354;DHT22;55274;43.060;25.618;2023-06-10T03:55:16;16.70;98.80
68354;DHT22;55274;43.060;25.618;2023-06-10T03:57:43;16.80;97.90
68354;DHT22;55274;43.060;25.618;2023-06-10T04:00:09;16.90;97.70
68354;DHT22;55274;43.060;25.618;2023-06-10T04:02:38;17.00;96.30
68354;DHT22;55274;43.060;25.618;2023-06-10T04:05:20;17.00;95.00
68354;DHT22;55274;43.060;25.618;2023-06-10T04:07:48;17.10;95.70
68354;DHT22;55274;43.060;25.618;2023-06-10T04:10:15;17.30;96.10
68354;DHT22;55274;43.060;25.618;2023-06-10T04:12:41;17.40;95.70
68354;DHT22;55274;43.060;25.618;2023-06-10T04:15:07;17.60;94.80
68354;DHT22;55274;43.060;25.618;2023-06-10T04:17:33;17.90;93.90
68354;DHT22;55274;43.060;25.618;2023-06-10T04:19:59;18.10;93.00
68354;DHT22;55274;43.060;25.618;2023-06-10T04:22:26;18.20;91.60
68354;DHT22;55274;43.060;25.618;2023-06-10T04:24:52;18.40;91.60
68354;DHT22;55274;43.060;25.618;2023-06-10T04:27:18;18.70;90.50
68354;DHT22;55274;43.060;25.618;2023-06-10T04:29:44;18.90;88.70
68354;DHT22;55274;43.060;25.618;2023-06-10T04:32:10;19.00;88.30
68354;DHT22;55274;43.060;25.618;2023-06-10T04:34:36;19.40;87.50
68354;DHT22;55274;43.060;25.618;2023-06-10T04:37:04;19.80;85.70
68354;DHT22;55274;43.060;25.618;2023-06-10T04:39:30;20.10;83.50
68354;DHT22;55274;43.060;25.618;2023-06-10T04:41:57;20.40;82.80
68354;DHT22;55274;43.060;25.618;2023-06-10T04:44:22;20.70;81.70
68354;DHT22;55274;43.060;25.618;2023-06-10T04:46:48;21.00;79.40
68354;DHT22;55274;43.060;25.618;2023-06-10T04:49:14;20.90;79.30
68354;DHT22;55274;43.060;25.618;2023-06-10T04:51:41;20.90;79.00
68354;DHT22;55274;43.060;25.618;2023-06-10T04:54:06;21.00;78.30
68354;DHT22;55274;43.060;25.618;2023-06-10T04:56:32;21.20;77.80
68354;DHT22;55274;43.060;25.618;2023-06-10T04:58:59;21.00;78.40
68354;DHT22;55274;43.060;25.618;2023-06-10T05:01:24;21.00;79.00
68354;DHT22;55274;43.060;25.618;2023-06-10T05:03:50;21.10;78.70
68354;DHT22;55274;43.060;25.618;2023-06-10T05:06:16;21.20;78.50
68354;DHT22;55274;43.060;25.618;2023-06-10T05:08:42;21.30;77.70
68354;DHT22;55274;43.060;25.618;2023-06-10T05:11:07;21.50;77.70
68354;DHT22;55274;43.060;25.618;2023-06-10T05:13:34;21.70;76.30
68354;DHT22;55274;43.060;25.618;2023-06-10T05:15:59;21.90;75.80
68354;DHT22;55274;43.060;25.618;2023-06-10T05:18:25;21.90;75.40
68354;DHT22;55274;43.060;25.618;2023-06-10T05:20:52;21.90;75.30
68354;DHT22;55274;43.060;25.618;2023-06-10T05:23:19;21.90;75.30
68354;DHT22;55274;43.060;25.618;2023-06-10T05:25:45;21.80;74.90
68354;DHT22;55274;43.060;25.618;2023-06-10T05:28:11;21.90;74.90
68354;DHT22;55274;43.060;25.618;2023-06-10T05:30:37;22.20;74.50
68354;DHT22;55274;43.060;25.618;2023-06-10T05:33:04;22.60;73.50
68354;DHT22;55274;43.060;25.618;2023-06-10T05:35:30;22.90;72.40
68354;DHT22;55274;43.060;25.618;2023-06-10T05:37:55;23.10;72.10
68354;DHT22;55274;43.060;25.618;2023-06-10T05:40:21;23.30;71.00
68354;DHT22;55274;43.060;25.618;2023-06-10T05:42:47;23.80;70.50
68354;DHT22;55274;43.060;25.618;2023-06-10T05:45:13;24.10;69.60
68354;DHT22;55274;43.060;25.618;2023-06-10T05:47:39;24.40;67.50
68354;DHT22;55274;43.060;25.618;2023-06-10T05:50:06;24.40;67.40
68354;DHT22;55274;43.060;25.618;2023-06-10T05:52:33;24.50;67.90
68354;DHT22;55274;43.060;25.618;2023-06-10T05:54:59;24.80;66.20
68354;DHT22;55274;43.060;25.618;2023-06-10T05:57:25;25.20;65.40
68354;DHT22;55274;43.060;25.618;2023-06-10T05:59:51;25.50;64.10
68354;DHT22;55274;43.060;25.618;2023-06-10T06:02:17;25.30;64.60
68354;DHT22;55274;43.060;25.618;2023-06-10T06:04:43;25.30;64.50
68354;DHT22;55274;43.060;25.618;2023-06-10T06:07:09;25.40;64.10
68354;DHT22;55274;43.060;25.618;2023-06-10T06:09:35;25.30;64.90
68354;DHT22;55274;43.060;25.618;2023-06-10T06:12:00;25.30;64.70
68354;DHT22;55274;43.060;25.618;2023-06-10T06:14:26;25.40;64.10
68354;DHT22;55274;43.060;25.618;2023-06-10T06:16:52;25.40;64.50
68354;DHT22;55274;43.060;25.618;2023-06-10T06:19:18;25.30;64.20
68354;DHT22;55274;43.060;25.618;2023-06-10T06:21:43;25.30;64.50
68354;DHT22;55274;43.060;25.618;2023-06-10T06:24:09;25.40;64.30
68354;DHT22;55274;43.060;25.618;2023-06-10T06:26:35;25.10;64.50
68354;DHT22;55274;43.060;25.618;2023-06-10T06:29:00;25.10;65.00
68354;DHT22;55274;43.060;25.618;2023-06-10T06:31:26;25.10;64.60
68354;DHT22;55274;43.060;25.618;2023-06-10T06:33:52;25.10;64.30
68354;DHT22;55274;43.060;25.618;2023-06-10T06:36:18;25.00;64.70
68354;DHT22;55274;43.060;25.618;2023-06-10T06:38:43;25.00;65.90
68354;DHT22;55274;43.060;25.618;2023-06-10T06:41:09;24.90;65.80
68354;DHT22;55274;43.060;25.618;2023-06-10T06:43:35;24.80;66.50
68354;DHT22;55274;43.060;25.618;2023-06-10T06:46:01;24.70;69.30
68354;DHT22;55274;43.060;25.618;2023-06-10T06:48:27;24.50;69.30
68354;DHT22;55274;43.060;25.618;2023-06-10T06:50:52;24.50;69.00
68354;DHT22;55274;43.060;25.618;2023-06-10T06:53:18;24.30;70.50
68354;DHT22;55274;43.060;25.618;2023-06-10T06:55:44;24.30;70.90
68354;DHT22;55274;43.060;25.618;2023-06-10T06:58:10;24.30;71.50
68354;DHT22;55274;43.060;25.618;2023-06-10T07:00:35;24.20;72.20
68354;DHT22;55274;43.060;25.618;2023-06-10T07:03:01;24.20;71.90
68354;DHT22;55274;43.060;25.618;2023-06-10T07:05:27;24.00;71.60
68354;DHT22;55274;43.060;25.618;2023-06-10T07:07:53;23.90;73.50
68354;DHT22;55274;43.060;25.618;2023-06-10T07:10:24;24.00;75.80
68354;DHT22;55274;43.060;25.618;2023-06-10T07:12:51;23.90;76.60
68354;DHT22;55274;43.060;25.618;2023-06-10T07:15:16;23.90;78.40
68354;DHT22;55274;43.060;25.618;2023-06-10T07:17:43;23.90;78.10
68354;DHT22;55274;43.060;25.618;2023-06-10T07:20:09;23.90;75.80
68354;DHT22;55274;43.060;25.618;2023-06-10T07:22:35;23.80;78.40
68354;DHT22;55274;43.060;25.618;2023-06-10T07:25:01;23.80;79.30
68354;DHT22;55274;43.060;25.618;2023-06-10T07:27:27;23.80;78.50
68354;DHT22;55274;43.060;25.618;2023-06-10T07:29:53;23.80;78.90
68354;DHT22;55274;43.060;25.618;2023-06-10T07:32:19;23.70;77.40
68354;DHT22;55274;43.060;25.618;2023-06-10T07:34:47;23.80;79.10
68354;DHT22;55274;43.060;25.618;2023-06-10T07:37:13;23.90;79.10
68354;DHT22;55274;43.060;25.618;2023-06-10T07:39:39;23.90;79.10
68354;DHT22;55274;43.060;25.618;2023-06-10T07:42:05;23.90;77.50
68354;DHT22;55274;43.060;25.618;2023-06-10T07:44:31;23.90;77.60
68354;DHT22;55274;43.060;25.618;2023-06-10T07:46:57;24.00;77.90
68354;DHT22;55274;43.060;25.618;2023-06-10T07:49:23;24.10;77.50
68354;DHT22;55274;43.060;25.618;2023-06-10T07:51:50;24.00;76.60
68354;DHT22;55274;43.060;25.618;2023-06-10T07:54:16;24.00;76.20
68354;DHT22;55274;43.060;25.618;2023-06-10T07:56:42;24.00;74.80
68354;DHT22;55274;43.060;25.618;2023-06-10T07:59:07;24.10;75.30
68354;DHT22;55274;43.060;25.618;2023-06-10T08:01:33;24.20;75.00
68354;DHT22;55274;43.060;25.618;2023-06-10T08:04:01;24.40;75.20
68354;DHT22;55274;43.060;25.618;2023-06-10T08:06:27;24.50;75.00
68354;DHT22;55274;43.060;25.618;2023-06-10T08:08:53;24.70;73.50
68354;DHT22;55274;43.060;25.618;2023-06-10T08:11:19;24.80;72.70
68354;DHT22;55274;43.060;25.618;2023-06-10T08:13:45;25.10;71.90
68354;DHT22;55274;43.060;25.618;2023-06-10T08:16:10;25.40;70.80
68354;DHT22;55274;43.060;25.618;2023-06-10T08:18:36;25.60;70.40
68354;DHT22;55274;43.060;25.618;2023-06-10T08:21:02;25.60;70.00
68354;DHT22;55274;43.060;25.618;2023-06-10T08:23:28;25.60;69.70
68354;DHT22;55274;43.060;25.618;2023-06-10T08:25:53;25.40;70.60
68354;DHT22;55274;43.060;25.618;2023-06-10T08:28:19;25.40;71.50
68354;DHT22;55274;43.060;25.618;2023-06-10T08:30:45;25.40;71.50
68354;DHT22;55274;43.060;25.618;2023-06-10T08:33:11;25.40;71.40
68354;DHT22;55274;43.060;25.618;2023-06-10T08:35:36;25.30;71.40
68354;DHT22;55274;43.060;25.618;2023-06-10T08:38:02;25.40;71.20
68354;DHT22;55274;43.060;25.618;2023-06-10T08:40:28;25.40;70.70
68354;DHT22;55274;43.060;25.618;2023-06-10T08:43:02;25.60;70.50
68354;DHT22;55274;43.060;25.618;2023-06-10T08:45:30;25.80;70.60
68354;DHT22;55274;43.060;25.618;2023-06-10T08:47:57;26.00;70.50
68354;DHT22;55274;43.060;25.618;2023-06-10T08:50:23;26.30;69.70
68354;DHT22;55274;43.060;25.618;2023-06-10T08:52:52;26.10;69.80
68354;DHT22;55274;43.060;25.618;2023-06-10T08:55:33;26.40;70.00
68354;DHT22;55274;43.060;25.618;2023-06-10T08:58:01;26.70;68.90
68354;DHT22;55274;43.060;25.618;2023-06-10T09:00:28;27.30;67.80
68354;DHT22;55274;43.060;25.618;2023-06-10T09:02:54;27.90;65.20
68354;DHT22;55274;43.060;25.618;2023-06-10T09:05:21;28.00;62.90
68354;DHT22;55274;43.060;25.618;2023-06-10T09:07:48;28.10;62.90
68354;DHT22;55274;43.060;25.618;2023-06-10T09:10:15;28.00;63.00
68354;DHT22;55274;43.060;25.618;2023-06-10T09:12:41;27.90;62.10
68354;DHT22;55274;43.060;25.618;2023-06-10T09:15:07;27.80;62.70
68354;DHT22;55274;43.060;25.618;2023-06-10T09:17:34;27.50;63.30
68354;DHT22;55274;43.060;25.618;2023-06-10T09:20:02;27.50;65.30
68354;DHT22;55274;43.060;25.618;2023-06-10T09:22:28;27.70;65.10
68354;DHT22;55274;43.060;25.618;2023-06-10T09:25:05;27.80;64.90
68354;DHT22;55274;43.060;25.618;2023-06-10T09:27:31;28.20;64.10
68354;DHT22;55274;43.060;25.618;2023-06-10T09:30:00;28.60;63.40
68354;DHT22;55274;43.060;25.618;2023-06-10T09:32:26;28.90;62.10
68354;DHT22;55274;43.060;25.618;2023-06-10T09:34:53;29.20;61.00
68354;DHT22;55274;43.060;25.618;2023-06-10T09:37:23;29.90;59.00
68354;DHT22;55274;43.060;25.618;2023-06-10T09:40:06;30.40;57.10
68354;DHT22;55274;43.060;25.618;2023-06-10T09:42:34;30.70;56.70
68354;DHT22;55274;43.060;25.618;2023-06-10T09:45:02;31.10;56.10
68354;DHT22;55274;43.060;25.618;2023-06-10T09:47:28;31.20;55.10
68354;DHT22;55274;43.060;25.618;2023-06-10T09:49:54;31.40;54.90
68354;DHT22;55274;43.060;25.618;2023-06-10T09:52:24;31.80;53.90
68354;DHT22;55274;43.060;25.618;2023-06-10T09:54:55;31.90;53.50
68354;DHT22;55274;43.060;25.618;2023-06-10T09:57:25;31.90;53.40
68354;DHT22;55274;43.060;25.618;2023-06-10T09:59:54;32.10;52.70
68354;DHT22;55274;43.060;25.618;2023-06-10T10:02:20;31.70;52.20
68354;DHT22;55274;43.060;25.618;2023-06-10T10:04:45;31.80;53.10
68354;DHT22;55274;43.060;25.618;2023-06-10T10:07:12;31.70;51.70
68354;DHT22;55274;43.060;25.618;2023-06-10T10:09:39;31.90;52.00
68354;DHT22;55274;43.060;25.618;2023-06-10T10:12:15;31.90;51.90
68354;DHT22;55274;43.060;25.618;2023-06-10T10:14:46;31.70;51.90
68354;DHT22;55274;43.060;25.618;2023-06-10T10:17:14;32.00;52.10
68354;DHT22;55274;43.060;25.618;2023-06-10T10:19:46;32.30;51.10
68354;DHT22;55274;43.060;25.618;2023-06-10T10:22:25;32.00;51.90
68354;DHT22;55274;43.060;25.618;2023-06-10T10:24:55;31.60;52.40
68354;DHT22;55274;43.060;25.618;2023-06-10T10:27:27;31.70;51.80
68354;DHT22;55274;43.060;25.618;2023-06-10T10:29:54;31.30;53.60
68354;DHT22;55274;43.060;25.618;2023-06-10T10:32:35;31.10;54.30
68354;DHT22;55274;43.060;25.618;2023-06-10T10:35:17;30.70;54.20
68354;DHT22;55274;43.060;25.618;2023-06-10T10:37:44;31.10;54.10
68354;DHT22;55274;43.060;25.618;2023-06-10T10:40:11;31.30;52.60
68354;DHT22;55274;43.060;25.618;2023-06-10T10:42:38;31.40;51.60
68354;DHT22;55274;43.060;25.618;2023-06-10T10:45:05;31.50;49.80
68354;DHT22;55274;43.060;25.618;2023-06-10T10:47:31;32.00;50.30
68354;DHT22;55274;43.060;25.618;2023-06-10T10:49:58;32.40;48.60
68354;DHT22;55274;43.060;25.618;2023-06-10T10:52:26;32.90;47.30
68354;DHT22;55274;43.060;25.618;2023-06-10T10:54:53;32.60;47.70
68354;DHT22;55274;43.060;25.618;2023-06-10T10:57:21;32.60;46.60
68354;DHT22;55274;43.060;25.618;2023-06-10T10:59:55;33.10;46.50
68354;DHT22;55274;43.060;25.618;2023-06-10T11:02:41;33.40;44.70
68354;DHT22;55274;43.060;25.618;2023-06-10T11:05:16;33.40;44.70
68354;DHT22;55274;43.060;25.618;2023-06-10T11:07:53;33.50;44.50
68354;DHT22;55274;43.060;25.618;2023-06-10T11:10:32;33.00;45.00
68354;DHT22;55274;43.060;25.618;2023-06-10T11:12:58;33.00;45.80
68354;DHT22;55274;43.060;25.618;2023-06-10T11:15:26;33.10;44.50
68354;DHT22;55274;43.060;25.618;2023-06-10T11:18:27;33.20;45.40
68354;DHT22;55274;43.060;25.618;2023-06-10T11:20:58;33.40;43.90
68354;DHT22;55274;43.060;25.618;2023-06-10T11:31:19;33.50;43.30
68354;DHT22;55274;43.060;25.618;2023-06-10T11:33:47;33.50;42.80
68354;DHT22;55274;43.060;25.618;2023-06-10T11:36:14;33.60;43.50
68354;DHT22;55274;43.060;25.618;2023-06-10T11:38:40;33.30;43.30
68354;DHT22;55274;43.060;25.618;2023-06-10T11:41:07;32.90;44.70
68354;DHT22;55274;43.060;25.618;2023-06-10T11:43:34;33.10;46.10
68354;DHT22;55274;43.060;25.618;2023-06-10T11:46:00;33.20;45.30
68354;DHT22;55274;43.060;25.618;2023-06-10T11:48:26;33.20;43.20
68354;DHT22;55274;43.060;25.618;2023-06-10T11:50:55;33.20;43.70
68354;DHT22;55274;43.060;25.618;2023-06-10T11:53:21;32.80;43.20
68354;DHT22;55274;43.060;25.618;2023-06-10T11:55:50;33.00;44.50
68354;DHT22;55274;43.060;25.618;2023-06-10T11:58:19;33.10;43.80
68354;DHT22;55274;43.060;25.618;2023-06-10T12:00:50;33.00;44.20
68354;DHT22;55274;43.060;25.618;2023-06-10T12:03:16;32.80;45.30
68354;DHT22;55274;43.060;25.618;2023-06-10T12:05:59;33.00;46.10
68354;DHT22;55274;43.060;25.618;2023-06-10T12:08:26;32.70;45.20
68354;DHT22;55274;43.060;25.618;2023-06-10T12:10:53;32.50;45.00
68354;DHT22;55274;43.060;25.618;2023-06-10T12:13:19;32.10;46.00
68354;DHT22;55274;43.060;25.618;2023-06-10T12:15:46;32.20;45.80
68354;DHT22;55274;43.060;25.618;2023-06-10T12:18:22;32.50;43.20
68354;DHT22;55274;43.060;25.618;2023-06-10T12:20:49;32.60;42.80
68354;DHT22;55274;43.060;25.618;2023-06-10T12:23:17;32.10;44.60
68354;DHT22;55274;43.060;25.618;2023-06-10T12:25:50;31.80;43.80
68354;DHT22;55274;43.060;25.618;2023-06-10T12:28:20;31.40;44.20
68354;DHT22;55274;43.060;25.618;2023-06-10T12:30:46;31.10;46.30
68354;DHT22;55274;43.060;25.618;2023-06-10T12:33:21;30.80;45.90
68354;DHT22;55274;43.060;25.618;2023-06-10T12:35:51;31.00;47.10
68354;DHT22;55274;43.060;25.618;2023-06-10T12:38:23;31.40;45.30
68354;DHT22;55274;43.060;25.618;2023-06-10T12:41:04;31.80;43.10
68354;DHT22;55274;43.060;25.618;2023-06-10T12:43:31;32.10;42.80
68354;DHT22;55274;43.060;25.618;2023-06-10T12:46:08;32.10;43.30
68354;DHT22;55274;43.060;25.618;2023-06-10T12:48:35;32.30;43.20
68354;DHT22;55274;43.060;25.618;2023-06-10T12:51:01;32.30;43.80
68354;DHT22;55274;43.060;25.618;2023-06-10T12:53:26;32.30;41.20
68354;DHT22;55274;43.060;25.618;2023-06-10T12:55:52;32.30;41.20
68354;DHT22;55274;43.060;25.618;2023-06-10T12:58:21;32.40;40.80
68354;DHT22;55274;43.060;25.618;2023-06-10T13:00:48;32.60;40.80
68354;DHT22;55274;43.060;25.618;2023-06-10T13:03:14;32.80;40.30
68354;DHT22;55274;43.060;25.618;2023-06-10T13:05:40;32.80;40.00
68354;DHT22;55274;43.060;25.618;2023-06-10T13:08:07;32.90;39.20
68354;DHT22;55274;43.060;25.618;2023-06-10T13:10:33;32.90;39.70
68354;DHT22;55274;43.060;25.618;2023-06-10T13:13:00;32.80;39.20
68354;DHT22;55274;43.060;25.618;2023-06-10T13:15:27;32.60;38.90
68354;DHT22;55274;43.060;25.618;2023-06-10T13:17:53;32.60;39.30
68354;DHT22;55274;43.060;25.618;2023-06-10T13:20:19;32.70;39.00
68354;DHT22;55274;43.060;25.618;2023-06-10T13:22:46;32.70;38.90
68354;DHT22;55274;43.060;25.618;2023-06-10T13:25:13;32.40;39.10
68354;DHT22;55274;43.060;25.618;2023-06-10T13:27:38;32.30;38.60
68354;DHT22;55274;43.060;25.618;2023-06-10T13:30:08;32.40;38.80
68354;DHT22;55274;43.060;25.618;2023-06-10T13:32:38;32.30;39.60
68354;DHT22;55274;43.060;25.618;2023-06-10T13:35:04;32.60;39.40
68354;DHT22;55274;43.060;25.618;2023-06-10T13:37:30;32.70;39.10
68354;DHT22;55274;43.060;25.618;2023-06-10T13:39:55;32.50;39.50
68354;DHT22;55274;43.060;25.618;2023-06-10T13:42:21;32.40;40.30
68354;DHT22;55274;43.060;25.618;2023-06-10T13:44:47;32.10;41.90
68354;DHT22;55274;43.060;25.618;2023-06-10T13:47:14;31.60;42.70
68354;DHT22;55274;43.060;25.618;2023-06-10T13:49:40;31.40;43.40
68354;DHT22;55274;43.060;25.618;2023-06-10T13:52:07;31.30;43.40
68354;DHT22;55274;43.060;25.618;2023-06-10T13:54:33;31.10;43.10
68354;DHT22;55274;43.060;25.618;2023-06-10T13:56:59;30.70;42.80
68354;DHT22;55274;43.060;25.618;2023-06-10T13:59:25;30.60;42.80
68354;DHT22;55274;43.060;25.618;2023-06-10T14:01:51;30.50;42.60
68354;DHT22;55274;43.060;25.618;2023-06-10T14:04:17;30.40;42.20
68354;DHT22;55274;43.060;25.618;2023-06-10T14:06:43;30.40;41.60
68354;DHT22;55274;43.060;25.618;2023-06-10T14:09:09;30.20;42.30
68354;DHT22;55274;43.060;25.618;2023-06-10T14:11:35;30.20;43.00
68354;DHT22;55274;43.060;25.618;2023-06-10T14:14:00;30.30;43.10
68354;DHT22;55274;43.060;25.618;2023-06-10T14:16:26;30.20;43.10
68354;DHT22;55274;43.060;25.618;2023-06-10T14:18:52;30.30;43.20
68354;DHT22;55274;43.060;25.618;2023-06-10T14:21:18;30.10;43.60
68354;DHT22;55274;43.060;25.618;2023-06-10T14:23:44;29.90;43.10
68354;DHT22;55274;43.060;25.618;2023-06-10T14:26:11;29.90;42.90
68354;DHT22;55274;43.060;25.618;2023-06-10T14:28:37;29.90;43.10
68354;DHT22;55274;43.060;25.618;2023-06-10T14:31:02;29.90;44.20
68354;DHT22;55274;43.060;25.618;2023-06-10T14:33:28;29.90;44.30
68354;DHT22;55274;43.060;25.618;2023-06-10T14:35:54;29.90;45.70
68354;DHT22;55274;43.060;25.618;2023-06-10T14:38:20;29.80;48.20
68354;DHT22;55274;43.060;25.618;2023-06-10T14:40:46;29.90;48.00
68354;DHT22;55274;43.060;25.618;2023-06-10T14:43:12;30.00;46.10
68354;DHT22;55274;43.060;25.618;2023-06-10T14:45:39;30.10;44.60
68354;DHT22;55274;43.060;25.618;2023-06-10T14:48:06;30.00;43.70
68354;DHT22;55274;43.060;25.618;2023-06-10T14:50:32;30.00;43.80
68354;DHT22;55274;43.060;25.618;2023-06-10T14:52:58;29.90;44.20
68354;DHT22;55274;43.060;25.618;2023-06-10T14:55:24;30.00;45.20
68354;DHT22;55274;43.060;25.618;2023-06-10T14:57:50;30.00;45.60
68354;DHT22;55274;43.060;25.618;2023-06-10T15:00:16;30.00;46.60
68354;DHT22;55274;43.060;25.618;2023-06-10T15:02:46;30.10;47.20
68354;DHT22;55274;43.060;25.618;2023-06-10T15:05:15;30.00;47.30
68354;DHT22;55274;43.060;25.618;2023-06-10T15:07:45;30.00;47.30
68354;DHT22;55274;43.060;25.618;2023-06-10T15:10:11;29.90;46.90
68354;DHT22;55274;43.060;25.618;2023-06-10T15:12:37;29.80;47.30
68354;DHT22;55274;43.060;25.618;2023-06-10T15:15:03;29.50;48.10
68354;DHT22;55274;43.060;25.618;2023-06-10T15:17:29;29.50;48.50
68354;DHT22;55274;43.060;25.618;2023-06-10T15:19:55;29.30;49.50
68354;DHT22;55274;43.060;25.618;2023-06-10T15:22:21;29.40;49.80
68354;DHT22;55274;43.060;25.618;2023-06-10T15:24:47;29.40;49.80
68354;DHT22;55274;43.060;25.618;2023-06-10T15:27:13;29.20;49.80
68354;DHT22;55274;43.060;25.618;2023-06-10T15:29:39;29.30;50.00